createdAt,value
2023-09-01T00:00:04.054Z,0.00
2023-09-01T00:01:04.074Z,0.00
2023-09-01T00:02:04.021Z,0.00
2023-09-01T00:03:04.036Z,0.00
2023-09-01T00:04:04.122Z,0.00
2023-09-01T00:05:03.998Z,0.00
2023-09-01T00:06:04.083Z,0.00
2023-09-01T00:07:03.950Z,0.00
2023-09-01T00:08:03.959Z,0.00
2023-09-01T00:09:03.952Z,0.00
2023-09-01T00:10:03.937Z,0.00
2023-09-01T00:11:03.958Z,0.00
2023-09-01T00:12:03.902Z,0.00
2023-09-01T00:13:03.908Z,0.00
2023-09-01T00:14:03.898Z,0.00
2023-09-01T00:15:03.884Z,0.00
2023-09-01T00:16:03.860Z,0.00
2023-09-01T00:17:03.866Z,0.00
2023-09-01T00:18:03.889Z,0.00
2023-09-01T00:19:03.849Z,0.00
2023-09-01T00:20:03.847Z,0.00
2023-09-01T00:21:03.813Z,0.00
2023-09-01T00:22:03.898Z,0.00
2023-09-01T00:23:03.776Z,0.00
2023-09-01T00:24:03.847Z,0.00
2023-09-01T00:25:03.782Z,0.00
2023-09-01T00:26:03.779Z,0.00
2023-09-01T00:27:03.737Z,0.00
2023-09-01T00:28:03.726Z,0.00
2023-09-01T00:29:03.743Z,0.00
2023-09-01T00:30:03.748Z,0.00
2023-09-01T00:31:03.809Z,0.00
2023-09-01T00:32:03.731Z,0.00
2023-09-01T00:33:03.881Z,0.00
2023-09-01T00:34:03.732Z,0.00
2023-09-01T00:35:03.718Z,0.00
2023-09-01T00:36:03.687Z,0.00
2023-09-01T00:37:03.699Z,0.00
2023-09-01T00:38:03.673Z,0.00
2023-09-01T00:39:03.643Z,0.00
2023-09-01T00:40:03.662Z,0.00
2023-09-01T00:41:03.639Z,0.00
2023-09-01T00:42:03.581Z,0.00
2023-09-01T00:43:03.602Z,0.00
2023-09-01T00:44:03.595Z,0.00
2023-09-01T00:45:03.548Z,0.00
2023-09-01T00:46:03.620Z,0.00
2023-09-01T00:47:03.585Z,0.00
2023-09-01T00:48:03.601Z,0.00
2023-09-01T00:49:03.510Z,0.00
2023-09-01T00:50:03.503Z,0.00
2023-09-01T00:51:03.608Z,0.00
2023-09-01T00:52:03.516Z,0.00
2023-09-01T00:53:03.496Z,0.00
2023-09-01T00:54:03.502Z,0.00
2023-09-01T00:55:03.476Z,0.00
2023-09-01T00:56:03.474Z,0.00
2023-09-01T00:57:03.424Z,0.00
2023-09-01T00:58:03.444Z,0.00
2023-09-01T00:59:03.457Z,0.00
2023-09-01T01:00:03.420Z,0.00
2023-09-01T01:01:03.413Z,0.00
2023-09-01T01:02:03.530Z,0.00
2023-09-01T01:03:03.522Z,0.00
2023-09-01T01:04:03.382Z,0.00
2023-09-01T01:05:03.429Z,0.00
2023-09-01T01:06:03.333Z,0.00
2023-09-01T01:07:03.368Z,0.00
2023-09-01T01:08:03.352Z,0.00
2023-09-01T01:09:03.356Z,0.00
2023-09-01T01:10:03.304Z,0.00
2023-09-01T01:11:03.322Z,0.00
2023-09-01T01:12:03.298Z,0.00
2023-09-01T01:13:03.277Z,0.00
2023-09-01T01:14:03.313Z,0.00
2023-09-01T01:15:03.267Z,0.00
2023-09-01T01:16:03.294Z,0.00
2023-09-01T01:17:03.934Z,0.00
2023-09-01T01:18:03.290Z,0.00
2023-09-01T01:19:03.249Z,0.00
2023-09-01T01:20:03.246Z,0.00
2023-09-01T01:21:03.236Z,0.00
2023-09-01T01:22:03.197Z,0.00
2023-09-01T01:23:03.186Z,0.00
2023-09-01T01:24:03.163Z,0.00
2023-09-01T01:25:03.212Z,0.00
2023-09-01T01:26:03.165Z,0.00
2023-09-01T01:27:03.117Z,0.00
2023-09-01T01:28:03.124Z,0.00
2023-09-01T01:29:03.135Z,0.00
2023-09-01T01:30:03.123Z,0.00
2023-09-01T01:31:03.147Z,0.00
2023-09-01T01:32:03.122Z,0.00
2023-09-01T01:33:03.144Z,0.00
2023-09-01T01:34:03.081Z,0.00
2023-09-01T01:35:03.039Z,0.00
2023-09-01T01:36:03.054Z,0.00
2023-09-01T01:37:03.070Z,0.00
2023-09-01T01:38:03.014Z,0.00
2023-09-01T01:39:03.019Z,0.00
2023-09-01T01:40:03.002Z,0.00
2023-09-01T01:41:03.030Z,0.00
2023-09-01T01:42:03.006Z,0.00
2023-09-01T01:43:02.989Z,0.00
2023-09-01T01:44:02.961Z,0.00
2023-09-01T01:45:02.966Z,0.00
2023-09-01T01:46:02.997Z,0.00
2023-09-01T01:47:02.926Z,0.00
2023-09-01T01:48:02.976Z,0.00
2023-09-01T01:49:02.933Z,0.00
2023-09-01T01:50:02.906Z,0.00
2023-09-01T01:51:02.900Z,0.00
2023-09-01T01:52:02.884Z,0.00
2023-09-01T01:53:02.902Z,0.00
2023-09-01T01:54:02.863Z,0.00
2023-09-01T01:55:02.874Z,0.00
2023-09-01T01:56:02.842Z,0.00
2023-09-01T01:57:02.814Z,0.00
2023-09-01T01:58:02.830Z,0.00
2023-09-01T01:59:02.815Z,0.00
2023-09-01T02:00:02.857Z,0.00
2023-09-01T02:01:02.817Z,0.00
2023-09-01T02:02:02.823Z,0.00
2023-09-01T02:03:02.819Z,0.00
2023-09-01T02:04:02.804Z,0.00
2023-09-01T02:05:02.853Z,0.00
2023-09-01T02:06:02.783Z,0.00
2023-09-01T02:07:02.740Z,0.00
2023-09-01T02:08:02.753Z,0.00
2023-09-01T02:09:02.761Z,0.00
2023-09-01T02:10:02.678Z,0.00
2023-09-01T02:11:02.754Z,0.00
2023-09-01T02:12:02.690Z,0.00
2023-09-01T02:13:02.668Z,0.00
2023-09-01T02:14:02.905Z,0.00
2023-09-01T02:15:02.646Z,0.00
2023-09-01T02:16:02.679Z,0.00
2023-09-01T02:17:02.653Z,0.00
2023-09-01T02:18:02.617Z,0.00
2023-09-01T02:19:02.609Z,0.00
2023-09-01T02:20:02.619Z,0.00
2023-09-01T02:21:02.604Z,0.00
2023-09-01T02:22:02.571Z,0.00
2023-09-01T02:23:02.569Z,0.00
2023-09-01T02:24:02.587Z,0.00
2023-09-01T02:25:02.561Z,0.00
2023-09-01T02:26:02.538Z,0.00
2023-09-01T02:27:02.516Z,0.00
2023-09-01T02:28:02.508Z,0.00
2023-09-01T02:29:02.513Z,0.00
2023-09-01T02:30:02.527Z,0.00
2023-09-01T02:31:02.459Z,0.00
2023-09-01T02:32:02.495Z,0.00
2023-09-01T02:33:02.490Z,0.00
2023-09-01T02:34:02.459Z,0.00
2023-09-01T02:35:02.441Z,0.00
2023-09-01T02:36:02.454Z,0.00
2023-09-01T02:37:02.467Z,0.00
2023-09-01T02:38:02.417Z,0.00
2023-09-01T02:39:02.403Z,0.00
2023-09-01T02:40:02.454Z,0.00
2023-09-01T02:41:02.382Z,0.00
2023-09-01T02:42:02.425Z,0.00
2023-09-01T02:43:02.346Z,0.00
2023-09-01T02:44:02.334Z,0.00
2023-09-01T02:45:02.335Z,0.00
2023-09-01T02:46:02.360Z,0.00
2023-09-01T02:47:02.321Z,0.00
2023-09-01T02:48:02.333Z,0.00
2023-09-01T02:49:02.291Z,0.00
2023-09-01T02:50:02.284Z,0.00
2023-09-01T02:51:02.274Z,0.00
2023-09-01T02:52:02.266Z,0.00
2023-09-01T02:53:02.294Z,0.00
2023-09-01T02:54:02.248Z,0.00
2023-09-01T02:55:02.248Z,0.00
2023-09-01T02:56:02.257Z,0.00
2023-09-01T02:57:02.241Z,0.00
2023-09-01T02:58:02.273Z,0.00
2023-09-01T02:59:02.246Z,0.00
2023-09-01T03:00:02.182Z,0.00
2023-09-01T03:01:02.224Z,0.00
2023-09-01T03:02:02.194Z,0.00
2023-09-01T03:03:02.217Z,0.00
2023-09-01T03:04:02.163Z,0.00
2023-09-01T03:05:02.157Z,0.00
2023-09-01T03:06:02.139Z,0.00
2023-09-01T03:07:02.112Z,0.00
2023-09-01T03:08:02.098Z,0.00
2023-09-01T03:09:02.085Z,0.00
2023-09-01T03:10:02.113Z,0.00
2023-09-01T03:11:02.115Z,0.00
2023-09-01T03:12:02.064Z,0.00
2023-09-01T03:13:02.024Z,0.00
2023-09-01T03:14:02.046Z,0.00
2023-09-01T03:15:02.050Z,0.00
2023-09-01T03:16:02.445Z,0.00
2023-09-01T03:17:02.031Z,0.00
2023-09-01T03:18:02.001Z,0.00
2023-09-01T03:19:01.979Z,0.00
2023-09-01T03:20:02.012Z,0.00
2023-09-01T03:21:01.975Z,0.00
2023-09-01T03:22:01.962Z,0.00
2023-09-01T03:23:01.919Z,0.00
2023-09-01T03:24:02.016Z,0.00
2023-09-01T03:25:01.978Z,0.00
2023-09-01T03:26:01.948Z,0.00
2023-09-01T03:27:01.905Z,0.00
2023-09-01T03:28:01.882Z,0.00
2023-09-01T03:29:02.832Z,0.00
2023-09-01T03:30:01.898Z,0.00
2023-09-01T03:31:01.878Z,0.00
2023-09-01T03:32:01.888Z,0.00
2023-09-01T03:33:01.852Z,0.00
2023-09-01T03:34:01.848Z,0.00
2023-09-01T03:35:01.841Z,0.00
2023-09-01T03:36:01.798Z,0.00
2023-09-01T03:37:01.803Z,0.00
2023-09-01T03:38:01.782Z,0.00
2023-09-01T03:39:01.788Z,0.00
2023-09-01T03:40:01.731Z,0.00
2023-09-01T03:41:01.705Z,0.00
2023-09-01T03:42:01.707Z,0.00
2023-09-01T03:43:01.714Z,0.00
2023-09-01T03:44:01.673Z,0.00
2023-09-01T03:45:01.691Z,0.00
2023-09-01T03:46:01.772Z,0.00
2023-09-01T03:47:01.682Z,0.00
2023-09-01T03:48:01.735Z,0.00
2023-09-01T03:49:01.628Z,0.00
2023-09-01T03:50:01.648Z,0.00
2023-09-01T03:51:01.618Z,0.00
2023-09-01T03:52:01.600Z,0.00
2023-09-01T03:53:01.606Z,0.00
2023-09-01T03:54:01.572Z,0.00
2023-09-01T03:55:01.583Z,0.00
2023-09-01T03:56:01.549Z,0.00
2023-09-01T03:57:01.550Z,0.00
2023-09-01T03:58:01.568Z,0.00
2023-09-01T03:59:01.566Z,0.00
2023-09-01T04:00:01.530Z,0.00
2023-09-01T04:01:01.492Z,0.00
2023-09-01T04:02:01.500Z,0.00
2023-09-01T04:03:01.606Z,0.00
2023-09-01T04:04:01.555Z,0.00
2023-09-01T04:05:01.476Z,0.00
2023-09-01T04:06:01.493Z,0.00
2023-09-01T04:07:01.460Z,0.00
2023-09-01T04:08:01.539Z,0.00
2023-09-01T04:09:01.571Z,0.00
2023-09-01T04:10:01.402Z,5.62
2023-09-01T04:11:01.404Z,5.62
2023-09-01T04:12:01.433Z,5.62
2023-09-01T04:13:01.362Z,5.62
2023-09-01T04:14:01.372Z,5.62
2023-09-01T04:15:01.338Z,5.62
2023-09-01T04:16:01.441Z,5.62
2023-09-01T04:17:01.378Z,5.62
2023-09-01T04:18:01.375Z,11.25
2023-09-01T04:19:01.373Z,11.25
2023-09-01T04:20:01.307Z,11.25
2023-09-01T04:21:01.354Z,11.25
2023-09-01T04:22:01.538Z,11.25
2023-09-01T04:23:01.277Z,16.88
2023-09-01T04:24:01.247Z,16.88
2023-09-01T04:25:01.217Z,16.88
2023-09-01T04:26:01.230Z,16.88
2023-09-01T04:27:01.257Z,22.50
2023-09-01T04:28:01.271Z,22.50
2023-09-01T04:29:01.327Z,22.50
2023-09-01T04:30:09.783Z,22.50
2023-09-01T04:31:02.221Z,28.12
2023-09-01T04:32:01.258Z,28.12
2023-09-01T04:33:01.206Z,28.12
2023-09-01T04:34:01.763Z,33.75
2023-09-01T04:35:01.155Z,33.75
2023-09-01T04:36:01.156Z,33.75
2023-09-01T04:37:01.227Z,39.38
2023-09-01T04:38:01.130Z,39.38
2023-09-01T04:39:01.118Z,39.38
2023-09-01T04:40:01.187Z,45.00
2023-09-01T04:41:01.096Z,45.00
2023-09-01T04:42:01.089Z,45.00
2023-09-01T04:43:01.099Z,50.62
2023-09-01T04:44:01.145Z,50.62
2023-09-01T04:45:01.050Z,50.62
2023-09-01T04:46:01.049Z,56.25
2023-09-01T04:47:01.047Z,56.25
2023-09-01T04:48:01.048Z,61.88
2023-09-01T04:49:01.023Z,61.88
2023-09-01T04:50:00.998Z,61.88
2023-09-01T04:51:00.961Z,67.50
2023-09-01T04:52:01.003Z,67.50
2023-09-01T04:53:01.092Z,67.50
2023-09-01T04:54:00.958Z,73.12
2023-09-01T04:55:00.923Z,73.12
2023-09-01T04:56:00.948Z,78.75
2023-09-01T04:57:00.951Z,78.75
2023-09-01T04:58:01.037Z,78.75
2023-09-01T04:59:00.905Z,84.38
2023-09-01T05:00:00.921Z,84.38
2023-09-01T05:01:00.945Z,84.38
2023-09-01T05:02:00.901Z,90.00
2023-09-01T05:03:01.166Z,90.00
2023-09-01T05:04:01.004Z,95.62
2023-09-01T05:05:00.806Z,95.62
2023-09-01T05:06:00.839Z,95.62
2023-09-01T05:07:00.813Z,101.25
2023-09-01T05:08:00.794Z,101.25
2023-09-01T05:09:00.876Z,106.88
2023-09-01T05:10:00.827Z,106.88
2023-09-01T05:11:00.753Z,112.50
2023-09-01T05:12:00.843Z,112.50
2023-09-01T05:13:00.762Z,112.50
2023-09-01T05:14:00.788Z,140.62
2023-09-01T05:15:00.733Z,213.75
2023-09-01T05:16:00.796Z,275.62
2023-09-01T05:17:00.751Z,286.88
2023-09-01T05:18:00.722Z,298.12
2023-09-01T05:19:00.779Z,309.38
2023-09-01T05:20:00.790Z,309.38
2023-09-01T05:21:00.660Z,320.62
2023-09-01T05:22:00.754Z,315.00
2023-09-01T05:23:00.733Z,337.50
2023-09-01T05:24:00.655Z,388.12
2023-09-01T05:25:00.706Z,399.38
2023-09-01T05:26:00.621Z,410.62
2023-09-01T05:27:00.698Z,433.12
2023-09-01T05:28:00.668Z,433.12
2023-09-01T05:29:00.671Z,427.50
2023-09-01T05:30:00.605Z,433.12
2023-09-01T05:31:00.647Z,455.62
2023-09-01T05:32:00.607Z,472.50
2023-09-01T05:33:00.592Z,523.12
2023-09-01T05:34:00.619Z,545.62
2023-09-01T05:35:00.540Z,596.25
2023-09-01T05:36:00.519Z,691.88
2023-09-01T05:37:00.813Z,843.75
2023-09-01T05:38:00.593Z,995.62
2023-09-01T05:39:00.549Z,978.75
2023-09-01T05:40:02.780Z,894.38
2023-09-01T05:41:00.479Z,1029.38
2023-09-01T05:42:00.512Z,1051.88
2023-09-01T05:43:00.517Z,697.50
2023-09-01T05:44:00.477Z,478.12
2023-09-01T05:45:00.443Z,455.62
2023-09-01T05:46:00.590Z,472.50
2023-09-01T05:47:00.401Z,489.38
2023-09-01T05:48:00.527Z,511.88
2023-09-01T05:49:00.393Z,517.50
2023-09-01T05:50:00.454Z,450.00
2023-09-01T05:51:00.373Z,472.50
2023-09-01T05:52:00.345Z,472.50
2023-09-01T05:53:00.682Z,450.00
2023-09-01T05:54:00.462Z,450.00
2023-09-01T05:55:00.309Z,444.38
2023-09-01T05:56:00.360Z,433.12
2023-09-01T05:57:00.324Z,410.62
2023-09-01T05:58:00.347Z,399.38
2023-09-01T05:59:00.280Z,399.38
2023-09-01T06:00:00.253Z,343.12
2023-09-01T06:01:00.266Z,315.00
2023-09-01T06:02:00.284Z,320.62
2023-09-01T06:03:00.333Z,320.62
2023-09-01T06:04:00.268Z,309.38
2023-09-01T06:05:00.368Z,315.00
2023-09-01T06:06:00.215Z,315.00
2023-09-01T06:07:00.188Z,326.25
2023-09-01T06:08:00.196Z,320.62
2023-09-01T06:09:00.244Z,309.38
2023-09-01T06:10:00.268Z,298.12
2023-09-01T06:11:00.143Z,298.12
2023-09-01T06:12:00.160Z,298.12
2023-09-01T06:13:00.150Z,303.75
2023-09-01T06:14:00.125Z,292.50
2023-09-01T06:15:00.106Z,298.12
2023-09-01T06:16:00.136Z,303.75
2023-09-01T06:17:00.209Z,303.75
2023-09-01T06:18:00.150Z,303.75
2023-09-01T06:19:00.191Z,303.75
2023-09-01T06:20:00.058Z,303.75
2023-09-01T06:21:00.128Z,309.38
2023-09-01T06:22:00.210Z,309.38
2023-09-01T06:23:00.782Z,309.38
2023-09-01T06:24:00.057Z,309.38
2023-09-01T06:25:00.026Z,303.75
2023-09-01T06:26:00.044Z,286.88
2023-09-01T06:27:00.059Z,303.75
2023-09-01T06:28:00.155Z,303.75
2023-09-01T06:28:59.965Z,298.12
2023-09-01T06:29:59.964Z,264.38
2023-09-01T06:30:59.985Z,219.38
2023-09-01T06:31:59.932Z,247.50
2023-09-01T06:32:59.970Z,275.62
2023-09-01T06:33:59.974Z,241.88
2023-09-01T06:34:59.895Z,236.25
2023-09-01T06:35:59.921Z,236.25
2023-09-01T06:36:59.895Z,253.12
2023-09-01T06:37:59.897Z,258.75
2023-09-01T06:38:59.874Z,258.75
2023-09-01T06:39:59.938Z,270.00
2023-09-01T06:40:59.839Z,270.00
2023-09-01T06:41:59.877Z,281.25
2023-09-01T06:42:59.868Z,264.38
2023-09-01T06:43:59.839Z,241.88
2023-09-01T06:44:59.892Z,230.62
2023-09-01T06:45:59.805Z,230.62
2023-09-01T06:46:59.867Z,225.00
2023-09-01T06:47:59.818Z,225.00
2023-09-01T06:48:59.807Z,225.00
2023-09-01T06:49:59.782Z,225.00
2023-09-01T06:50:59.744Z,225.00
2023-09-01T06:51:59.920Z,230.62
2023-09-01T06:52:59.755Z,225.00
2023-09-01T06:53:59.812Z,225.00
2023-09-01T06:54:59.825Z,225.00
2023-09-01T06:55:59.692Z,225.00
2023-09-01T06:56:59.682Z,219.38
2023-09-01T06:57:59.715Z,219.38
2023-09-01T06:58:59.673Z,225.00
2023-09-01T06:59:59.749Z,230.62
2023-09-01T07:00:59.704Z,230.62
2023-09-01T07:01:59.694Z,219.38
2023-09-01T07:02:59.692Z,230.62
2023-09-01T07:03:59.696Z,230.62
2023-09-01T07:04:59.622Z,230.62
2023-09-01T07:05:59.594Z,230.62
2023-09-01T07:06:59.598Z,236.25
2023-09-01T07:07:59.594Z,236.25
2023-09-01T07:08:59.567Z,236.25
2023-09-01T07:09:59.630Z,236.25
2023-09-01T07:10:59.565Z,236.25
2023-09-01T07:11:59.562Z,236.25
2023-09-01T07:12:59.571Z,236.25
2023-09-01T07:13:59.520Z,230.62
2023-09-01T07:14:59.604Z,236.25
2023-09-01T07:15:59.744Z,241.88
2023-09-01T07:16:59.533Z,241.88
2023-09-01T07:17:59.497Z,241.88
2023-09-01T07:18:59.534Z,241.88
2023-09-01T07:19:59.583Z,241.88
2023-09-01T07:20:59.529Z,241.88
2023-09-01T07:21:59.420Z,247.50
2023-09-01T07:22:59.435Z,247.50
2023-09-01T07:23:59.495Z,247.50
2023-09-01T07:24:59.558Z,247.50
2023-09-01T07:25:59.405Z,253.12
2023-09-01T07:26:59.454Z,253.12
2023-09-01T07:27:59.336Z,253.12
2023-09-01T07:28:59.929Z,253.12
2023-09-01T07:29:59.331Z,258.75
2023-09-01T07:30:59.334Z,258.75
2023-09-01T07:31:59.393Z,264.38
2023-09-01T07:32:59.472Z,258.75
2023-09-01T07:33:59.392Z,258.75
2023-09-01T07:34:59.278Z,258.75
2023-09-01T07:35:59.378Z,258.75
2023-09-01T07:36:59.318Z,247.50
2023-09-01T07:37:59.268Z,258.75
2023-09-01T07:38:59.218Z,258.75
2023-09-01T07:39:59.344Z,258.75
2023-09-01T07:40:59.255Z,264.38
2023-09-01T07:41:59.247Z,264.38
2023-09-01T07:42:59.236Z,264.38
2023-09-01T07:43:59.232Z,264.38
2023-09-01T07:44:59.159Z,264.38
2023-09-01T07:45:59.273Z,264.38
2023-09-01T07:46:59.275Z,275.62
2023-09-01T07:48:14.365Z,281.25
2023-09-01T07:49:00.181Z,281.25
2023-09-01T07:49:59.128Z,286.88
2023-09-01T07:50:59.473Z,286.88
2023-09-01T07:51:59.136Z,286.88
2023-09-01T07:52:59.130Z,292.50
2023-09-01T07:53:59.085Z,292.50
2023-09-01T07:54:59.150Z,286.88
2023-09-01T07:56:05.112Z,286.88
2023-09-01T07:56:59.180Z,281.25
2023-09-01T07:57:59.100Z,286.88
2023-09-01T07:58:59.025Z,298.12
2023-09-01T07:59:59.018Z,298.12
2023-09-01T08:00:59.015Z,303.75
2023-09-01T08:01:59.086Z,309.38
2023-09-01T08:02:59.160Z,309.38
2023-09-01T08:03:59.046Z,303.75
2023-09-01T08:04:59.147Z,303.75
2023-09-01T08:05:58.981Z,315.00
2023-09-01T08:06:59.007Z,315.00
2023-09-01T08:07:58.956Z,315.00
2023-09-01T08:08:59.009Z,315.00
2023-09-01T08:09:58.910Z,326.25
2023-09-01T08:10:58.918Z,320.62
2023-09-01T08:11:58.911Z,320.62
2023-09-01T08:12:58.955Z,320.62
2023-09-01T08:13:58.896Z,320.62
2023-09-01T08:14:58.906Z,320.62
2023-09-01T08:15:58.868Z,320.62
2023-09-01T08:16:58.925Z,320.62
2023-09-01T08:17:58.881Z,320.62
2023-09-01T08:18:58.849Z,320.62
2023-09-01T08:19:58.833Z,320.62
2023-09-01T08:20:58.858Z,320.62
2023-09-01T08:21:58.832Z,320.62
2023-09-01T08:22:58.779Z,320.62
2023-09-01T08:23:58.770Z,326.25
2023-09-01T08:24:59.633Z,326.25
2023-09-01T08:25:58.833Z,326.25
2023-09-01T08:26:58.797Z,326.25
2023-09-01T08:27:58.773Z,331.88
2023-09-01T08:28:58.737Z,331.88
2023-09-01T08:29:58.723Z,331.88
2023-09-01T08:30:58.804Z,331.88
2023-09-01T08:31:58.700Z,331.88
2023-09-01T08:32:58.807Z,337.50
2023-09-01T08:33:58.719Z,343.12
2023-09-01T08:34:59.635Z,270.00
2023-09-01T08:35:58.757Z,337.50
2023-09-01T08:36:58.695Z,343.12
2023-09-01T08:37:58.640Z,343.12
2023-09-01T08:38:58.661Z,343.12
2023-09-01T08:39:58.635Z,348.75
2023-09-01T08:40:58.665Z,354.38
2023-09-01T08:41:58.637Z,348.75
2023-09-01T08:42:58.607Z,354.38
2023-09-01T08:43:58.588Z,275.62
2023-09-01T08:44:59.087Z,360.00
2023-09-01T08:46:12.349Z,309.38
2023-09-01T08:46:59.643Z,354.38
2023-09-01T08:47:58.572Z,354.38
2023-09-01T08:48:58.572Z,225.00
2023-09-01T08:49:58.572Z,354.38
2023-09-01T08:50:58.571Z,360.00
2023-09-01T08:51:58.499Z,331.88
2023-09-01T08:52:58.501Z,365.62
2023-09-01T08:53:58.495Z,365.62
2023-09-01T08:54:58.494Z,371.25
2023-09-01T08:55:58.479Z,371.25
2023-09-01T08:56:58.445Z,365.62
2023-09-01T08:57:58.453Z,365.62
2023-09-01T08:58:58.459Z,376.88
2023-09-01T08:59:58.450Z,371.25
2023-09-01T09:00:58.415Z,371.25
2023-09-01T09:01:58.426Z,382.50
2023-09-01T09:03:07.599Z,382.50
2023-09-01T09:03:59.544Z,382.50
2023-09-01T09:04:58.365Z,382.50
2023-09-01T09:05:58.365Z,382.50
2023-09-01T09:06:58.348Z,382.50
2023-09-01T09:07:58.373Z,376.88
2023-09-01T09:08:58.343Z,371.25
2023-09-01T09:09:58.319Z,376.88
2023-09-01T09:10:58.415Z,376.88
2023-09-01T09:11:58.397Z,382.50
2023-09-01T09:12:58.312Z,393.75
2023-09-01T09:14:09.233Z,399.38
2023-09-01T09:14:59.678Z,382.50
2023-09-01T09:15:58.300Z,388.12
2023-09-01T09:16:58.281Z,388.12
2023-09-01T09:17:58.472Z,388.12
2023-09-01T09:18:58.342Z,376.88
2023-09-01T09:19:58.407Z,376.88
2023-09-01T09:20:58.228Z,376.88
2023-09-01T09:21:58.254Z,388.12
2023-09-01T09:22:58.195Z,393.75
2023-09-01T09:24:15.307Z,393.75
2023-09-01T09:24:59.175Z,393.75
2023-09-01T09:25:58.156Z,393.75
2023-09-01T09:26:58.176Z,405.00
2023-09-01T09:27:58.175Z,393.75
2023-09-01T09:28:58.190Z,388.12
2023-09-01T09:29:58.149Z,410.62
2023-09-01T09:30:58.127Z,410.62
2023-09-01T09:31:58.138Z,410.62
2023-09-01T09:32:58.095Z,410.62
2023-09-01T09:33:58.097Z,416.25
2023-09-01T09:34:58.050Z,410.62
2023-09-01T09:35:58.066Z,247.50
2023-09-01T09:36:58.064Z,393.75
2023-09-01T09:37:58.011Z,388.12
2023-09-01T09:38:58.052Z,388.12
2023-09-01T09:39:58.069Z,399.38
2023-09-01T09:40:58.014Z,410.62
2023-09-01T09:41:58.109Z,416.25
2023-09-01T09:42:58.009Z,405.00
2023-09-01T09:43:57.994Z,410.62
2023-09-01T09:44:57.952Z,433.12
2023-09-01T09:45:58.007Z,438.75
2023-09-01T09:46:57.974Z,427.50
2023-09-01T09:47:58.076Z,444.38
2023-09-01T09:48:58.030Z,444.38
2023-09-01T09:49:57.929Z,438.75
2023-09-01T09:50:57.874Z,444.38
2023-09-01T09:51:57.926Z,455.62
2023-09-01T09:52:57.912Z,455.62
2023-09-01T09:53:57.910Z,455.62
2023-09-01T09:54:57.844Z,225.00
2023-09-01T09:55:57.875Z,213.75
2023-09-01T09:56:57.849Z,461.25
2023-09-01T09:57:57.839Z,455.62
2023-09-01T09:58:57.974Z,450.00
2023-09-01T09:59:57.822Z,455.62
2023-09-01T10:00:57.834Z,461.25
2023-09-01T10:01:57.867Z,461.25
2023-09-01T10:02:57.819Z,230.62
2023-09-01T10:03:57.819Z,483.75
2023-09-01T10:04:57.768Z,478.12
2023-09-01T10:05:57.728Z,489.38
2023-09-01T10:06:57.707Z,483.75
2023-09-01T10:07:57.793Z,483.75
2023-09-01T10:08:57.717Z,483.75
2023-09-01T10:09:57.748Z,478.12
2023-09-01T10:10:57.690Z,489.38
2023-09-01T10:11:57.675Z,511.88
2023-09-01T10:12:57.666Z,472.50
2023-09-01T10:13:57.675Z,495.00
2023-09-01T10:14:57.696Z,511.88
2023-09-01T10:15:57.669Z,517.50
2023-09-01T10:16:57.658Z,270.00
2023-09-01T10:17:57.699Z,511.88
2023-09-01T10:18:57.606Z,258.75
2023-09-01T10:19:57.653Z,444.38
2023-09-01T10:20:57.634Z,241.88
2023-09-01T10:21:57.578Z,225.00
2023-09-01T10:22:57.578Z,241.88
2023-09-01T10:23:57.586Z,258.75
2023-09-01T10:24:57.599Z,264.38
2023-09-01T10:25:57.552Z,450.00
2023-09-01T10:26:57.567Z,517.50
2023-09-01T10:27:57.510Z,540.00
2023-09-01T10:28:57.526Z,523.12
2023-09-01T10:29:57.535Z,331.88
2023-09-01T10:30:57.522Z,489.38
2023-09-01T10:31:57.563Z,466.88
2023-09-01T10:32:57.560Z,410.62
2023-09-01T10:33:57.523Z,241.88
2023-09-01T10:34:57.506Z,309.38
2023-09-01T10:35:57.467Z,444.38
2023-09-01T10:36:57.393Z,466.88
2023-09-01T10:37:57.451Z,472.50
2023-09-01T10:38:57.420Z,405.00
2023-09-01T10:39:57.426Z,320.62
2023-09-01T10:40:57.427Z,253.12
2023-09-01T10:41:57.405Z,270.00
2023-09-01T10:42:57.377Z,298.12
2023-09-01T10:43:57.407Z,371.25
2023-09-01T10:44:57.339Z,320.62
2023-09-01T10:45:57.334Z,320.62
2023-09-01T10:46:57.359Z,433.12
2023-09-01T10:47:57.329Z,337.50
2023-09-01T10:48:57.358Z,286.88
2023-09-01T10:49:57.330Z,455.62
2023-09-01T10:50:57.340Z,315.00
2023-09-01T10:51:57.252Z,309.38
2023-09-01T10:52:57.333Z,348.75
2023-09-01T10:53:57.285Z,298.12
2023-09-01T10:54:57.256Z,343.12
2023-09-01T10:55:57.227Z,315.00
2023-09-01T10:56:57.245Z,388.12
2023-09-01T10:57:57.228Z,416.25
2023-09-01T10:58:58.494Z,331.88
2023-09-01T10:59:57.179Z,337.50
2023-09-01T11:00:57.247Z,506.25
2023-09-01T11:01:57.208Z,466.88
2023-09-01T11:02:57.298Z,523.12
2023-09-01T11:03:57.220Z,556.88
2023-09-01T11:04:57.177Z,562.50
2023-09-01T11:05:57.147Z,517.50
2023-09-01T11:06:57.215Z,461.25
2023-09-01T11:07:57.185Z,427.50
2023-09-01T11:08:57.132Z,416.25
2023-09-01T11:09:57.097Z,450.00
2023-09-01T11:10:57.984Z,365.62
2023-09-01T11:11:57.236Z,405.00
2023-09-01T11:12:57.027Z,427.50
2023-09-01T11:13:57.135Z,472.50
2023-09-01T11:14:57.156Z,478.12
2023-09-01T11:15:57.034Z,421.88
2023-09-01T11:16:57.093Z,427.50
2023-09-01T11:17:57.166Z,421.88
2023-09-01T11:18:56.995Z,438.75
2023-09-01T11:19:56.987Z,416.25
2023-09-01T11:20:57.052Z,416.25
2023-09-01T11:21:56.982Z,365.62
2023-09-01T11:22:56.969Z,360.00
2023-09-01T11:23:56.955Z,343.12
2023-09-01T11:24:56.919Z,331.88
2023-09-01T11:25:56.914Z,331.88
2023-09-01T11:26:56.911Z,326.25
2023-09-01T11:27:57.022Z,348.75
2023-09-01T11:28:56.940Z,393.75
2023-09-01T11:29:56.872Z,506.25
2023-09-01T11:30:56.925Z,596.25
2023-09-01T11:31:56.849Z,500.62
2023-09-01T11:32:56.982Z,573.75
2023-09-01T11:33:56.850Z,573.75
2023-09-01T11:34:56.873Z,585.00
2023-09-01T11:35:56.835Z,562.50
2023-09-01T11:36:56.816Z,562.50
2023-09-01T11:37:56.843Z,573.75
2023-09-01T11:38:56.808Z,579.38
2023-09-01T11:39:56.914Z,483.75
2023-09-01T11:40:56.822Z,444.38
2023-09-01T11:41:56.767Z,421.88
2023-09-01T11:42:56.795Z,405.00
2023-09-01T11:43:56.740Z,410.62
2023-09-01T11:44:56.751Z,421.88
2023-09-01T11:45:56.800Z,450.00
2023-09-01T11:46:56.713Z,472.50
2023-09-01T11:47:56.706Z,483.75
2023-09-01T11:48:56.709Z,506.25
2023-09-01T11:49:56.770Z,517.50
2023-09-01T11:50:56.651Z,517.50
2023-09-01T11:51:56.670Z,562.50
2023-09-01T11:52:56.660Z,579.38
2023-09-01T11:53:56.662Z,573.75
2023-09-01T11:54:56.713Z,495.00
2023-09-01T11:55:56.623Z,517.50
2023-09-01T11:56:56.640Z,511.88
2023-09-01T11:57:56.654Z,489.38
2023-09-01T11:58:56.637Z,551.25
2023-09-01T11:59:56.637Z,562.50
2023-09-01T12:00:56.545Z,489.38
2023-09-01T12:01:56.577Z,523.12
2023-09-01T12:02:56.614Z,540.00
2023-09-01T12:03:56.581Z,523.12
2023-09-01T12:04:56.547Z,607.50
2023-09-01T12:05:56.540Z,613.12
2023-09-01T12:06:56.535Z,601.88
2023-09-01T12:07:56.568Z,596.25
2023-09-01T12:08:56.590Z,585.00
2023-09-01T12:09:56.490Z,545.62
2023-09-01T12:10:56.490Z,534.38
2023-09-01T12:11:56.447Z,528.75
2023-09-01T12:12:56.453Z,506.25
2023-09-01T12:13:56.442Z,478.12
2023-09-01T12:14:56.420Z,483.75
2023-09-01T12:15:56.492Z,489.38
2023-09-01T12:16:56.509Z,590.62
2023-09-01T12:17:56.497Z,500.62
2023-09-01T12:18:56.433Z,630.00
2023-09-01T12:19:56.419Z,641.25
2023-09-01T12:20:56.421Z,495.00
2023-09-01T12:21:56.330Z,534.38
2023-09-01T12:22:56.419Z,568.12
2023-09-01T12:23:56.324Z,590.62
2023-09-01T12:24:56.380Z,675.00
2023-09-01T12:25:56.328Z,658.12
2023-09-01T12:26:56.348Z,669.38
2023-09-01T12:27:56.270Z,697.50
2023-09-01T12:28:56.306Z,742.50
2023-09-01T12:29:56.284Z,759.38
2023-09-01T12:30:56.264Z,708.75
2023-09-01T12:31:56.321Z,545.62
2023-09-01T12:32:56.378Z,708.75
2023-09-01T12:33:56.353Z,731.25
2023-09-01T12:34:56.227Z,697.50
2023-09-01T12:35:56.212Z,686.25
2023-09-01T12:36:56.201Z,551.25
2023-09-01T12:37:56.200Z,590.62
2023-09-01T12:38:56.210Z,613.12
2023-09-01T12:39:56.153Z,613.12
2023-09-01T12:40:56.144Z,545.62
2023-09-01T12:41:56.255Z,618.75
2023-09-01T12:42:56.146Z,556.88
2023-09-01T12:43:56.196Z,376.88
2023-09-01T12:44:56.156Z,365.62
2023-09-01T12:45:56.260Z,382.50